Terminal Aerodrome Forecast
Issued by NWS

Home | Current Version | Previous Version | Text Only | Print | Product List | Glossary On
Versions: 1 2 3 4 5 6 7 8 9 10 11 12 13 14 15 16
000
FTUS42 KMLB 222300
TAFSFB
TAF
KSFB 222340Z 2300/2324 16003KT P6SM SCT040 BKN250
     FM230500 18003KT 4SM BR SCT002 OVC006
     FM231400 18006KT P6SM SCT010 BKN020 BKN250
     FM231600 17011KT P6SM SCT030 SCT080 BKN250=

USA.gov is the U.S. government's official web portal to all federal, state and local government web resources and services.